createdAt,value
2023-04-15T00:00:15.969Z,60.36
2023-04-15T00:01:21.436Z,60.52
2023-04-15T00:02:27.251Z,60.76
2023-04-15T00:03:33.718Z,60.67
2023-04-15T00:04:39.188Z,61
2023-04-15T00:05:44.766Z,60.64
2023-04-15T00:06:50.051Z,60.93
2023-04-15T00:07:55.338Z,60.83
2023-04-15T00:09:01.568Z,60.79
2023-04-15T00:10:07.168Z,61.25
2023-04-15T00:11:12.490Z,61.02
2023-04-15T00:12:17.793Z,60.97
2023-04-15T00:13:23.080Z,61.06
2023-04-15T00:14:28.614Z,61.37
2023-04-15T00:15:33.892Z,61.18
2023-04-15T00:16:39.310Z,61.22
2023-04-15T00:17:47.028Z,61.05
2023-04-15T00:18:52.409Z,60.76
2023-04-15T00:19:57.697Z,61.3
2023-04-15T00:21:03.055Z,61.1
2023-04-15T00:22:08.341Z,60.99
2023-04-15T00:23:13.657Z,61.15
2023-04-15T00:24:18.988Z,60.94
2023-04-15T00:25:24.281Z,61.25
2023-04-15T00:26:29.557Z,61.27
2023-04-15T00:27:34.844Z,61.12
2023-04-15T00:28:40.128Z,61.54
2023-04-15T00:29:48.010Z,61.31
2023-04-15T00:30:53.412Z,61.24
2023-04-15T00:31:58.725Z,61.46
2023-04-15T00:33:04.126Z,61.17
2023-04-15T00:34:09.436Z,61.24
2023-04-15T00:35:14.771Z,61.3
2023-04-15T00:36:20.113Z,61.41
2023-04-15T00:37:25.451Z,61.49
2023-04-15T00:38:30.775Z,61.14
2023-04-15T00:39:36.157Z,61.22
2023-04-15T00:40:41.481Z,61.25
2023-04-15T00:41:46.784Z,61.26
2023-04-15T00:42:52.114Z,61.34
2023-04-15T00:43:57.421Z,61.29
2023-04-15T00:45:02.808Z,62.12
2023-04-15T00:46:08.233Z,61.46
2023-04-15T00:47:13.571Z,61.47
2023-04-15T00:48:18.900Z,61.63
2023-04-15T00:49:24.294Z,62.43
2023-04-15T00:50:29.647Z,61.96
2023-04-15T00:51:34.962Z,62.38
2023-04-15T00:52:40.427Z,62.52
2023-04-15T00:53:45.737Z,61.93
2023-04-15T00:54:51.062Z,62.47
2023-04-15T00:55:56.378Z,62.62
2023-04-15T00:57:01.755Z,62.57
2023-04-15T00:58:07.167Z,62.11
2023-04-15T00:59:12.481Z,62.12
2023-04-15T01:00:17.850Z,62.55
2023-04-15T01:01:23.210Z,61.68
2023-04-15T01:02:29.036Z,62.27
2023-04-15T01:03:35.084Z,61.76
2023-04-15T01:04:41.083Z,61.56
2023-04-15T01:05:46.421Z,62.05
2023-04-15T01:06:51.759Z,61.73
2023-04-15T01:07:57.148Z,61.6
2023-04-15T01:09:03.329Z,62.13
2023-04-15T01:10:08.863Z,61.5
2023-04-15T01:11:14.206Z,62.05
2023-04-15T01:12:19.534Z,62.21
2023-04-15T01:13:24.861Z,61.76
2023-04-15T01:14:30.166Z,61.69
2023-04-15T01:15:35.474Z,61.63
2023-04-15T01:16:40.765Z,61.78
2023-04-15T01:17:46.232Z,62.3
2023-04-15T01:18:51.548Z,61.65
2023-04-15T01:19:56.973Z,61.65
2023-04-15T01:21:02.321Z,61.68
2023-04-15T01:22:07.641Z,61.55
2023-04-15T01:23:12.960Z,61.61
2023-04-15T01:24:18.331Z,61.77
2023-04-15T01:25:23.635Z,61.78
2023-04-15T01:26:28.984Z,61.87
2023-04-15T01:27:34.267Z,61.95
2023-04-15T01:28:39.566Z,61.77
2023-04-15T01:29:44.890Z,61.91
2023-04-15T01:30:50.212Z,61.78
2023-04-15T01:31:55.821Z,61.73
2023-04-15T01:33:01.424Z,61.87
2023-04-15T01:34:06.822Z,62.21
2023-04-15T01:35:12.141Z,61.97
2023-04-15T01:36:17.471Z,62.1
2023-04-15T01:37:22.796Z,61.89
2023-04-15T01:38:28.158Z,62.17
2023-04-15T01:39:33.519Z,62.89
2023-04-15T01:40:38.830Z,62.77
2023-04-15T01:41:44.228Z,62.22
2023-04-15T01:42:49.544Z,61.96
2023-04-15T01:43:54.948Z,62.5
2023-04-15T01:45:00.223Z,61.97
2023-04-15T01:46:05.573Z,62.09
2023-04-15T01:47:10.929Z,62.62
2023-04-15T01:48:16.219Z,62.69
2023-04-15T01:49:21.808Z,62.26
2023-04-15T01:50:27.169Z,62.2
2023-04-15T01:51:32.505Z,62.31
2023-04-15T01:52:37.841Z,62.16
2023-04-15T01:53:43.182Z,61.86
2023-04-15T01:54:48.495Z,62.59
2023-04-15T01:55:53.827Z,62.11
2023-04-15T01:56:59.125Z,62.59
2023-04-15T01:58:04.448Z,62.09
2023-04-15T01:59:09.739Z,62.28
2023-04-15T02:00:16.046Z,62.02
2023-04-15T02:01:21.673Z,62.75
2023-04-15T02:02:27.227Z,62.23
2023-04-15T02:03:32.873Z,62.3
2023-04-15T02:04:38.281Z,62.12
2023-04-15T02:05:43.576Z,62.23
2023-04-15T02:06:48.898Z,62.52
2023-04-15T02:07:54.220Z,62.37
2023-04-15T02:08:59.815Z,62.5
2023-04-15T02:10:05.403Z,62.18
2023-04-15T02:11:10.764Z,62.61
2023-04-15T02:12:16.068Z,62.35
2023-04-15T02:13:22.384Z,62.2
2023-04-15T02:14:27.668Z,62.33
2023-04-15T02:15:33.082Z,62.29
2023-04-15T02:16:38.618Z,62.25
2023-04-15T02:17:44.091Z,62.92
2023-04-15T02:18:49.483Z,62.41
2023-04-15T02:19:54.773Z,62.76
2023-04-15T02:21:00.395Z,62.57
2023-04-15T02:22:05.679Z,62.69
2023-04-15T02:23:10.993Z,62.3
2023-04-15T02:24:16.283Z,62.56
2023-04-15T02:25:21.611Z,62.3
2023-04-15T02:26:26.931Z,62.38
2023-04-15T02:27:32.245Z,62.3
2023-04-15T02:28:37.577Z,62.41
2023-04-15T02:29:42.900Z,62.57
2023-04-15T02:30:48.171Z,62.17
2023-04-15T02:31:53.661Z,62.46
2023-04-15T02:32:59.083Z,62.47
2023-04-15T02:34:04.502Z,62.43
2023-04-15T02:35:09.806Z,62.69
2023-04-15T02:36:15.131Z,62.29
2023-04-15T02:37:20.464Z,62.22
2023-04-15T02:38:26.047Z,62.3
2023-04-15T02:39:31.347Z,62.39
2023-04-15T02:40:36.652Z,62.32
2023-04-15T02:41:41.971Z,62.21
2023-04-15T02:42:47.399Z,62.49
2023-04-15T02:43:52.679Z,62.42
2023-04-15T02:44:57.982Z,62.37
2023-04-15T02:46:03.388Z,62.84
2023-04-15T02:47:11.773Z,62.78
2023-04-15T02:48:17.056Z,62.39
2023-04-15T02:49:22.391Z,62.74
2023-04-15T02:50:27.711Z,62.6
2023-04-15T02:51:33.033Z,62.89
2023-04-15T02:52:38.360Z,62.52
2023-04-15T02:53:43.700Z,62.67
2023-04-15T02:54:49.029Z,63.17
2023-04-15T02:55:54.365Z,62.72
2023-04-15T02:56:59.676Z,62.79
2023-04-15T02:58:05.030Z,63.1
2023-04-15T02:59:10.391Z,63.54
2023-04-15T03:00:15.742Z,63.13
2023-04-15T03:01:21.134Z,63.21
2023-04-15T03:02:26.801Z,62.73
2023-04-15T03:03:32.520Z,63.5
2023-04-15T03:04:37.935Z,62.93
2023-04-15T03:05:43.257Z,63.68
2023-04-15T03:06:48.645Z,63.52
2023-04-15T03:07:53.981Z,63.43
2023-04-15T03:08:59.397Z,63.61
2023-04-15T03:10:04.815Z,63.48
2023-04-15T03:11:10.125Z,63.3
2023-04-15T03:12:15.407Z,63.94
2023-04-15T03:13:20.682Z,63.43
2023-04-15T03:14:26.009Z,63.58
2023-04-15T03:15:31.462Z,63.98
2023-04-15T03:16:36.800Z,63.67
2023-04-15T03:17:42.335Z,63.52
2023-04-15T03:18:47.678Z,63.72
2023-04-15T03:19:52.969Z,63.07
2023-04-15T03:20:58.339Z,63.35
2023-04-15T03:22:03.672Z,63.08
2023-04-15T03:23:09.008Z,62.9
2023-04-15T03:24:14.305Z,63.12
2023-04-15T03:25:19.637Z,63.51
2023-04-15T03:26:24.978Z,63.38
2023-04-15T03:27:30.303Z,63.17
2023-04-15T03:28:35.667Z,63.72
2023-04-15T03:29:40.971Z,63.82
2023-04-15T03:30:46.318Z,62.8
2023-04-15T03:31:51.633Z,64.02
2023-04-15T03:32:57.095Z,63.1
2023-04-15T03:34:02.455Z,63.08
2023-04-15T03:35:07.761Z,63.63
2023-04-15T03:36:13.063Z,64.05
2023-04-15T03:37:18.398Z,63.4
2023-04-15T03:38:23.711Z,63.22
2023-04-15T03:39:29.052Z,62.78
2023-04-15T03:40:34.395Z,62.91
2023-04-15T03:41:39.721Z,62.98
2023-04-15T03:42:45.161Z,62.69
2023-04-15T03:43:50.479Z,63.17
2023-04-15T03:44:55.784Z,63.44
2023-04-15T03:46:04.065Z,62.8
2023-04-15T03:47:09.373Z,63.05
2023-04-15T03:48:20.872Z,62.69
2023-04-15T03:49:26.157Z,62.87
2023-04-15T03:50:31.518Z,63.25
2023-04-15T03:51:36.820Z,62.81
2023-04-15T03:52:42.146Z,63.03
2023-04-15T03:53:47.479Z,63.33
2023-04-15T03:54:52.825Z,62.73
2023-04-15T03:56:01.177Z,63.12
2023-04-15T03:57:06.472Z,62.65
2023-04-15T03:58:11.772Z,62.68
2023-04-15T03:59:17.049Z,63
2023-04-15T04:00:22.353Z,63.05
2023-04-15T04:01:27.657Z,63.23
2023-04-15T04:02:33.303Z,62.77
2023-04-15T04:03:39.335Z,62.91
2023-04-15T04:04:44.915Z,63.16
2023-04-15T04:05:53.249Z,63.34
2023-04-15T04:06:58.539Z,62.79
2023-04-15T04:08:03.852Z,62.92
2023-04-15T04:09:09.192Z,63.13
2023-04-15T04:10:14.478Z,63.52
2023-04-15T04:11:19.792Z,63.47
2023-04-15T04:12:25.086Z,63.42
2023-04-15T04:13:30.403Z,63.14
2023-04-15T04:14:35.748Z,62.92
2023-04-15T04:15:41.199Z,62.73
2023-04-15T04:16:46.658Z,62.52
2023-04-15T04:17:52.197Z,62.42
2023-04-15T04:18:57.551Z,62.21
2023-04-15T04:20:02.955Z,62.1
2023-04-15T04:21:08.259Z,62.14
2023-04-15T04:22:13.616Z,62.1
2023-04-15T04:23:18.927Z,61.98
2023-04-15T04:24:24.267Z,61.94
2023-04-15T04:25:29.589Z,61.92
2023-04-15T04:26:34.900Z,61.81
2023-04-15T04:27:40.234Z,61.97
2023-04-15T04:28:45.583Z,61.85
2023-04-15T04:29:50.903Z,61.64
2023-04-15T04:30:56.264Z,61.73
2023-04-15T04:32:01.771Z,61.75
2023-04-15T04:33:09.728Z,61.6
2023-04-15T04:34:15.027Z,61.54
2023-04-15T04:35:20.350Z,61.6
2023-04-15T04:36:25.659Z,61.89
2023-04-15T04:37:31.025Z,61.74
2023-04-15T04:38:36.317Z,61.79
2023-04-15T04:39:41.611Z,61.79
2023-04-15T04:40:46.891Z,61.77
2023-04-15T04:41:52.214Z,61.78
2023-04-15T04:42:57.553Z,61.69
2023-04-15T04:44:02.890Z,61.92
2023-04-15T04:45:08.302Z,61.81
2023-04-15T04:46:13.796Z,61.93
2023-04-15T04:47:19.132Z,61.97
2023-04-15T04:48:24.435Z,61.91
2023-04-15T04:49:29.767Z,62.01
2023-04-15T04:50:35.078Z,62.2
2023-04-15T04:51:40.412Z,62.29
2023-04-15T04:52:45.729Z,62.22
2023-04-15T04:53:51.060Z,62.25
2023-04-15T04:54:57.220Z,62.1
2023-04-15T04:56:02.546Z,62.51
2023-04-15T04:57:07.845Z,62.39
2023-04-15T04:58:13.169Z,62.51
2023-04-15T04:59:20.793Z,62.62
2023-04-15T05:00:26.106Z,62.48
2023-04-15T05:01:31.599Z,62.67
2023-04-15T05:02:37.326Z,62.6
2023-04-15T05:03:42.916Z,62.54
2023-04-15T05:04:48.268Z,62.8
2023-04-15T05:05:53.596Z,62.88
2023-04-15T05:06:58.942Z,62.68
2023-04-15T05:08:04.294Z,62.9
2023-04-15T05:09:09.591Z,62.8
2023-04-15T05:10:14.966Z,62.7
2023-04-15T05:11:20.278Z,62.61
2023-04-15T05:12:25.608Z,62.66
2023-04-15T05:13:30.923Z,62.78
2023-04-15T05:14:36.270Z,62.69
2023-04-15T05:15:41.681Z,62.88
2023-04-15T05:16:47.018Z,62.65
2023-04-15T05:17:52.557Z,62.9
2023-04-15T05:18:57.959Z,62.72
2023-04-15T05:20:03.282Z,62.89
2023-04-15T05:21:08.577Z,62.63
2023-04-15T05:22:16.163Z,62.81
2023-04-15T05:23:21.479Z,62.66
2023-04-15T05:24:26.803Z,62.51
2023-04-15T05:25:32.140Z,62.64
2023-04-15T05:26:37.486Z,62.61
2023-04-15T05:27:42.811Z,62.23
2023-04-15T05:28:48.174Z,62.45
2023-04-15T05:29:53.508Z,62.17
2023-04-15T05:30:59.020Z,62.47
2023-04-15T05:32:04.367Z,62.21
2023-04-15T05:33:09.681Z,62.57
2023-04-15T05:34:15.133Z,62.19
2023-04-15T05:35:21.104Z,62.46
2023-04-15T05:36:26.539Z,62.33
2023-04-15T05:37:31.822Z,62.52
2023-04-15T05:38:37.139Z,62.44
2023-04-15T05:39:42.480Z,62.37
2023-04-15T05:40:47.755Z,62.28
2023-04-15T05:41:53.096Z,62.41
2023-04-15T05:42:58.362Z,62.62
2023-04-15T05:44:03.664Z,62.48
2023-04-15T05:45:09.083Z,62.8
2023-04-15T05:46:14.517Z,62.73
2023-04-15T05:47:19.938Z,62.64
2023-04-15T05:48:25.260Z,62.38
2023-04-15T05:49:30.607Z,62.12
2023-04-15T05:50:35.942Z,62.47
2023-04-15T05:51:41.245Z,62.7
2023-04-15T05:52:46.562Z,62.7
2023-04-15T05:53:51.886Z,62.9
2023-04-15T05:54:57.184Z,62.76
2023-04-15T05:56:02.509Z,62.47
2023-04-15T05:57:07.840Z,62.75
2023-04-15T05:58:13.183Z,62.44
2023-04-15T05:59:18.546Z,62.47
2023-04-15T06:00:23.872Z,62.63
2023-04-15T06:01:29.155Z,61.96
2023-04-15T06:02:34.934Z,62.43
2023-04-15T06:03:40.930Z,62.21
2023-04-15T06:04:46.462Z,62.29
2023-04-15T06:05:51.765Z,62.6
2023-04-15T06:06:57.054Z,62.54
2023-04-15T06:08:02.347Z,62.09
2023-04-15T06:09:07.769Z,62.6
2023-04-15T06:10:13.102Z,62.87
2023-04-15T06:11:18.430Z,62.28
2023-04-15T06:12:23.864Z,62.4
2023-04-15T06:13:29.224Z,62.09
2023-04-15T06:14:34.525Z,61.98
2023-04-15T06:15:39.860Z,62.38
2023-04-15T06:16:45.441Z,62.37
2023-04-15T06:17:50.867Z,62.1
2023-04-15T06:18:56.182Z,62.54
2023-04-15T06:20:01.614Z,62.96
2023-04-15T06:21:07.024Z,63.07
2023-04-15T06:22:12.341Z,62.86
2023-04-15T06:23:17.690Z,62.64
2023-04-15T06:24:23.037Z,62.96
2023-04-15T06:25:28.407Z,63.01
2023-04-15T06:26:33.728Z,63.18
2023-04-15T06:27:39.043Z,63.25
2023-04-15T06:28:44.347Z,62.85
2023-04-15T06:29:49.634Z,63
2023-04-15T06:30:54.966Z,62.83
2023-04-15T06:32:00.604Z,63.15
2023-04-15T06:33:06.028Z,63.2
2023-04-15T06:34:11.340Z,63.19
2023-04-15T06:35:16.639Z,63.15
2023-04-15T06:36:21.969Z,63.06
2023-04-15T06:37:27.306Z,62.62
2023-04-15T06:38:33.621Z,62.92
2023-04-15T06:39:38.889Z,62.75
2023-04-15T06:40:44.220Z,62.98
2023-04-15T06:41:49.530Z,62.99
2023-04-15T06:42:54.813Z,63.08
2023-04-15T06:44:00.235Z,62.92
2023-04-15T06:45:05.578Z,63.2
2023-04-15T06:46:11.119Z,63.17
2023-04-15T06:47:16.568Z,63.08
2023-04-15T06:48:21.875Z,62.75
2023-04-15T06:49:27.173Z,62.65
2023-04-15T06:50:33.499Z,63.14
2023-04-15T06:51:38.787Z,62.98
2023-04-15T06:52:44.106Z,62.74
2023-04-15T06:53:49.423Z,62.6
2023-04-15T06:54:54.726Z,62.73
2023-04-15T06:55:59.995Z,63.32
2023-04-15T06:57:05.324Z,63.27
2023-04-15T06:58:10.598Z,63.36
2023-04-15T06:59:15.910Z,62.81
2023-04-15T07:00:21.213Z,62.61
2023-04-15T07:01:26.703Z,62.49
2023-04-15T07:02:32.376Z,62.53
2023-04-15T07:03:37.824Z,62.99
2023-04-15T07:04:43.296Z,63.4
2023-04-15T07:05:48.599Z,62.74
2023-04-15T07:06:54.056Z,62.96
2023-04-15T07:07:59.362Z,62.41
2023-04-15T07:09:05.864Z,61.86
2023-04-15T07:10:11.344Z,61.83
2023-04-15T07:11:16.641Z,61.8
2023-04-15T07:12:21.930Z,61.17
2023-04-15T07:13:27.266Z,60.09
2023-04-15T07:14:32.576Z,60.22
2023-04-15T07:15:37.897Z,59.97
2023-04-15T07:16:43.287Z,59.05
2023-04-15T07:17:48.779Z,59.38
2023-04-15T07:18:54.149Z,59.36
2023-04-15T07:19:59.497Z,59.11
2023-04-15T07:21:04.832Z,59.02
2023-04-15T07:22:10.159Z,59.23
2023-04-15T07:23:15.464Z,59.43
2023-04-15T07:24:20.769Z,58.87
2023-04-15T07:25:26.120Z,59
2023-04-15T07:26:31.433Z,58.99
2023-04-15T07:27:36.724Z,59.01
2023-04-15T07:28:41.983Z,59.04
2023-04-15T07:29:47.282Z,58.87
2023-04-15T07:30:52.806Z,58.87
2023-04-15T07:31:58.196Z,58.72
2023-04-15T07:33:03.784Z,58.84
2023-04-15T07:34:09.148Z,58.82
2023-04-15T07:35:14.510Z,58.79
2023-04-15T07:36:19.831Z,58.75
2023-04-15T07:37:25.254Z,58.69
2023-04-15T07:38:30.547Z,58.58
2023-04-15T07:39:35.851Z,58.65
2023-04-15T07:40:41.258Z,58.6
2023-04-15T07:41:46.578Z,58.73
2023-04-15T07:42:52.029Z,58.55
2023-04-15T07:43:57.449Z,58.59
2023-04-15T07:45:03.037Z,58.5
2023-04-15T07:46:08.473Z,58.47
2023-04-15T07:47:13.790Z,58.54
2023-04-15T07:48:19.088Z,58.47
2023-04-15T07:49:24.429Z,58.55
2023-04-15T07:50:29.775Z,58.61
2023-04-15T07:51:35.109Z,58.63
2023-04-15T07:52:40.567Z,58.46
2023-04-15T07:53:45.953Z,58.33
2023-04-15T07:54:51.301Z,58.46
2023-04-15T07:55:56.626Z,58.5
2023-04-15T07:57:01.993Z,58.56
2023-04-15T07:58:07.372Z,58.51
2023-04-15T07:59:12.735Z,58.47
2023-04-15T08:00:18.056Z,58.4
2023-04-15T08:01:23.390Z,58.33
2023-04-15T08:02:29.060Z,58.24
2023-04-15T08:03:34.865Z,58.41
2023-04-15T08:04:40.897Z,58.31
2023-04-15T08:05:46.372Z,58.28
2023-04-15T08:06:51.779Z,58.49
2023-04-15T08:07:57.179Z,58.5
2023-04-15T08:09:03.228Z,58.46
2023-04-15T08:10:08.696Z,58.48
2023-04-15T08:11:14.031Z,58.42
2023-04-15T08:12:19.381Z,58.3
2023-04-15T08:13:24.707Z,58.38
2023-04-15T08:14:30.046Z,58.64
2023-04-15T08:15:35.372Z,58.5
2023-04-15T08:16:40.925Z,58.26
2023-04-15T08:17:46.386Z,58.42
2023-04-15T08:18:51.768Z,58.25
2023-04-15T08:19:57.150Z,58.31
2023-04-15T08:21:02.481Z,58.12
2023-04-15T08:22:20.604Z,58.01
2023-04-15T08:23:27.077Z,58.01
2023-04-15T08:24:32.363Z,58.32
2023-04-15T08:25:37.684Z,58.15
2023-04-15T08:26:43.015Z,58.09
2023-04-15T08:27:48.362Z,58.25
2023-04-15T08:28:53.723Z,58.18
2023-04-15T08:29:59.206Z,58.04
2023-04-15T08:31:04.602Z,58.26
2023-04-15T08:32:09.975Z,58.14
2023-04-15T08:33:15.308Z,58.21
2023-04-15T08:34:20.644Z,58.18
2023-04-15T08:35:26.018Z,58.17
2023-04-15T08:36:31.352Z,58.15
2023-04-15T08:37:36.723Z,58.11
2023-04-15T08:38:42.075Z,58.08
2023-04-15T08:39:47.404Z,58.06
2023-04-15T08:40:53.426Z,58
2023-04-15T08:41:58.784Z,57.94
2023-04-15T08:43:04.178Z,57.92
2023-04-15T08:44:09.496Z,57.88
2023-04-15T08:45:14.870Z,57.87
2023-04-15T08:46:20.353Z,57.82
2023-04-15T08:47:26.025Z,57.81
2023-04-15T08:48:31.385Z,57.8
2023-04-15T08:49:36.718Z,57.83
2023-04-15T08:50:42.312Z,57.83
2023-04-15T08:51:47.621Z,57.84
2023-04-15T08:52:52.948Z,57.82
2023-04-15T08:53:58.363Z,57.82
2023-04-15T08:55:03.689Z,57.86
2023-04-15T08:56:09.100Z,57.83
2023-04-15T08:57:14.442Z,57.83
2023-04-15T08:58:19.807Z,57.89
2023-04-15T08:59:25.264Z,57.78
2023-04-15T09:00:30.599Z,57.45
2023-04-15T09:01:36.127Z,57.59
2023-04-15T09:02:42.226Z,57.6
2023-04-15T09:03:47.939Z,57.73
2023-04-15T09:04:53.322Z,57.67
2023-04-15T09:05:58.659Z,57.68
2023-04-15T09:07:04.000Z,57.77
2023-04-15T09:08:09.440Z,57.76
2023-04-15T09:09:14.868Z,57.73
2023-04-15T09:10:20.297Z,57.68
2023-04-15T09:11:25.672Z,57.66
2023-04-15T09:12:31.044Z,57.7
2023-04-15T09:13:36.368Z,57.73
2023-04-15T09:14:41.717Z,57.68
2023-04-15T09:15:47.042Z,57.67
2023-04-15T09:16:53.287Z,57.75
2023-04-15T09:17:58.745Z,57.75
2023-04-15T09:19:04.508Z,57.76
2023-04-15T09:20:09.826Z,57.84
2023-04-15T09:21:15.479Z,57.77
2023-04-15T09:22:20.876Z,57.83
2023-04-15T09:23:26.204Z,57.72
2023-04-15T09:24:31.535Z,57.92
2023-04-15T09:25:37.808Z,57.73
2023-04-15T09:26:43.214Z,57.9
2023-04-15T09:27:48.604Z,58.04
2023-04-15T09:28:53.983Z,57.79
2023-04-15T09:29:59.307Z,57.78
2023-04-15T09:31:04.835Z,57.83
2023-04-15T09:32:10.197Z,57.78
2023-04-15T09:33:15.518Z,57.62
2023-04-15T09:34:20.871Z,57.6
2023-04-15T09:35:26.190Z,57.58
2023-04-15T09:36:31.613Z,57.5
2023-04-15T09:37:37.021Z,57.46
2023-04-15T09:38:42.385Z,57.54
2023-04-15T09:39:47.740Z,57.53
2023-04-15T09:40:53.053Z,57.51
2023-04-15T09:41:58.370Z,57.59
2023-04-15T09:43:03.719Z,57.56
2023-04-15T09:44:09.061Z,57.63
2023-04-15T09:45:14.388Z,57.68
2023-04-15T09:46:19.909Z,57.62
2023-04-15T09:47:25.425Z,57.75
2023-04-15T09:48:30.793Z,57.79
2023-04-15T09:49:37.292Z,57.73
2023-04-15T09:50:42.678Z,57.76
2023-04-15T09:52:07.793Z,57.81
2023-04-15T09:53:13.122Z,57.76
2023-04-15T09:54:18.454Z,57.82
2023-04-15T09:55:23.815Z,57.95
2023-04-15T09:56:29.159Z,58.02
2023-04-15T09:57:34.484Z,57.99
2023-04-15T09:58:39.859Z,57.94
2023-04-15T09:59:45.275Z,58.07
2023-04-15T10:00:50.641Z,58.06
2023-04-15T10:01:56.535Z,58.11
2023-04-15T10:03:02.347Z,58.16
2023-04-15T10:04:08.933Z,58.25
2023-04-15T10:05:14.411Z,58.53
2023-04-15T10:06:19.749Z,58.52
2023-04-15T10:07:25.066Z,58.61
2023-04-15T10:08:30.442Z,58.5
2023-04-15T10:09:35.778Z,58.5
2023-04-15T10:10:41.268Z,58.41
2023-04-15T10:11:46.626Z,58.46
2023-04-15T10:12:52.029Z,58.41
2023-04-15T10:13:57.677Z,58.35
2023-04-15T10:15:02.987Z,58.58
2023-04-15T10:16:08.749Z,58.71
2023-04-15T10:17:14.181Z,58.84
2023-04-15T10:18:19.505Z,58.82
2023-04-15T10:19:24.831Z,58.68
2023-04-15T10:20:30.201Z,58.69
2023-04-15T10:21:35.508Z,58.62
2023-04-15T10:22:40.846Z,58.78
2023-04-15T10:23:46.176Z,58.68
2023-04-15T10:24:51.554Z,58.85
2023-04-15T10:25:57.040Z,58.64
2023-04-15T10:27:02.407Z,58.49
2023-04-15T10:28:07.807Z,58.59
2023-04-15T10:29:13.163Z,58.31
2023-04-15T10:30:18.570Z,58.15
2023-04-15T10:31:24.051Z,58.62
2023-04-15T10:32:29.572Z,58.61
2023-04-15T10:33:35.027Z,58.55
2023-04-15T10:34:40.345Z,58.46
2023-04-15T10:35:45.659Z,58.57
2023-04-15T10:36:50.986Z,58.44
2023-04-15T10:37:56.312Z,58.63
2023-04-15T10:39:01.679Z,58.46
2023-04-15T10:40:07.036Z,58.36
2023-04-15T10:41:12.354Z,58.37
2023-04-15T10:42:17.751Z,58.57
2023-04-15T10:43:23.084Z,58.61
2023-04-15T10:44:28.412Z,58.39
2023-04-15T10:45:33.734Z,58.4
2023-04-15T10:46:39.221Z,58.28
2023-04-15T10:47:44.655Z,58.55
2023-04-15T10:48:50.026Z,58.55
2023-04-15T10:49:55.655Z,58.54
2023-04-15T10:51:00.997Z,58.48
2023-04-15T10:52:06.337Z,58.12
2023-04-15T10:53:11.683Z,58.32
2023-04-15T10:54:17.020Z,58.07
2023-04-15T10:55:22.372Z,58.21
2023-04-15T10:56:27.722Z,58.22
2023-04-15T10:57:33.091Z,58.01
2023-04-15T10:58:38.471Z,58.28
2023-04-15T10:59:43.827Z,58.25
2023-04-15T11:00:49.198Z,58.15
2023-04-15T11:01:55.129Z,58.02
2023-04-15T11:03:01.270Z,57.94
2023-04-15T11:04:07.840Z,57.97
2023-04-15T11:05:13.496Z,57.92
2023-04-15T11:06:18.851Z,57.92
2023-04-15T11:07:24.204Z,57.82
2023-04-15T11:08:29.516Z,57.88
2023-04-15T11:09:34.840Z,57.87
2023-04-15T11:10:40.298Z,57.87
2023-04-15T11:11:47.845Z,57.81
2023-04-15T11:12:53.164Z,57.88
2023-04-15T11:13:58.607Z,57.85
2023-04-15T11:15:03.917Z,57.83
2023-04-15T11:16:09.385Z,57.87
2023-04-15T11:17:14.728Z,57.87
2023-04-15T11:18:20.177Z,57.85
2023-04-15T11:19:25.497Z,57.89
2023-04-15T11:20:30.832Z,57.88
2023-04-15T11:21:36.152Z,57.94
2023-04-15T11:22:41.477Z,58.02
2023-04-15T11:23:47.908Z,57.98
2023-04-15T11:24:53.413Z,57.96
2023-04-15T11:25:58.866Z,58.02
2023-04-15T11:27:05.456Z,58.08
2023-04-15T11:28:13.948Z,58.06
2023-04-15T11:29:19.546Z,58.03
2023-04-15T11:30:24.964Z,58.06
2023-04-15T11:31:30.445Z,58.06
2023-04-15T11:32:35.989Z,58.03
2023-04-15T11:33:41.432Z,58.15
2023-04-15T11:34:47.005Z,58.17
2023-04-15T11:35:52.475Z,58.22
2023-04-15T11:36:57.830Z,58.06
2023-04-15T11:38:03.219Z,57.98
2023-04-15T11:39:08.522Z,57.96
2023-04-15T11:40:13.926Z,57.97
2023-04-15T11:41:19.264Z,57.9
2023-04-15T11:42:24.646Z,57.98
2023-04-15T11:43:29.966Z,58.13
2023-04-15T11:44:35.310Z,58.12
2023-04-15T11:45:40.779Z,58.19
2023-04-15T11:46:48.201Z,58.22
2023-04-15T11:47:53.727Z,58.24
2023-04-15T11:48:59.079Z,58.21
2023-04-15T11:50:04.439Z,58.22
2023-04-15T11:51:09.839Z,58.22
2023-04-15T11:52:17.462Z,58.19
2023-04-15T11:53:22.832Z,58.16
2023-04-15T11:54:28.191Z,58.09
2023-04-15T11:55:33.579Z,57.92
2023-04-15T11:56:38.930Z,58.1
2023-04-15T11:57:44.273Z,58.14
2023-04-15T11:58:49.750Z,58.1
2023-04-15T11:59:55.141Z,58.12
2023-04-15T12:01:02.902Z,58.2
2023-04-15T12:02:08.567Z,58.23
2023-04-15T12:03:14.872Z,58.17
2023-04-15T12:04:25.338Z,58.13
2023-04-15T12:05:30.969Z,58.16
2023-04-15T12:06:36.434Z,58.24
2023-04-15T12:07:41.764Z,58.09
2023-04-15T12:08:47.124Z,58.14
2023-04-15T12:09:52.436Z,58.18
2023-04-15T12:10:57.816Z,58.26
2023-04-15T12:12:03.221Z,58.37
2023-04-15T12:13:08.558Z,58.39
2023-04-15T12:14:13.882Z,58.35
2023-04-15T12:15:19.214Z,58.6
2023-04-15T12:16:24.857Z,58.77
2023-04-15T12:17:30.320Z,58.9
2023-04-15T12:18:56.365Z,58.89
2023-04-15T12:20:01.780Z,59.08
2023-04-15T12:21:07.164Z,59.12
2023-04-15T12:22:12.564Z,59.11
2023-04-15T12:23:17.937Z,59.15
2023-04-15T12:24:23.272Z,59.27
2023-04-15T12:25:28.619Z,59.28
2023-04-15T12:26:33.927Z,59.27
2023-04-15T12:27:39.283Z,59.25
2023-04-15T12:28:44.619Z,59.47
2023-04-15T12:29:49.929Z,59.32
2023-04-15T12:30:55.467Z,59.29
2023-04-15T12:32:00.846Z,59.46
2023-04-15T12:33:06.359Z,59.36
2023-04-15T12:34:11.715Z,59.64
2023-04-15T12:35:17.095Z,59.54
2023-04-15T12:36:22.414Z,59.44
2023-04-15T12:37:27.776Z,59.56
2023-04-15T12:38:33.105Z,59.38
2023-04-15T12:39:38.412Z,59.55
2023-04-15T12:40:43.736Z,59.57
2023-04-15T12:41:49.061Z,59.56
2023-04-15T12:42:54.399Z,59.62
2023-04-15T12:43:59.734Z,59.47
2023-04-15T12:45:05.167Z,59.39
2023-04-15T12:46:10.608Z,59.4
2023-04-15T12:47:16.010Z,59.62
2023-04-15T12:48:21.373Z,59.39
2023-04-15T12:49:26.715Z,59.48
2023-04-15T12:50:32.107Z,59.31
2023-04-15T12:51:37.465Z,59.49
2023-04-15T12:52:42.874Z,59.34
2023-04-15T12:53:48.255Z,59.39
2023-04-15T12:54:53.579Z,59.46
2023-04-15T12:55:58.900Z,59.46
2023-04-15T12:57:08.253Z,59.67
2023-04-15T12:58:13.597Z,59.63
2023-04-15T12:59:19.022Z,59.47
2023-04-15T13:00:24.425Z,59.5
2023-04-15T13:01:29.814Z,59.59
2023-04-15T13:02:35.740Z,59.44
2023-04-15T13:03:42.182Z,59.58
2023-04-15T13:04:47.896Z,59.65
2023-04-15T13:05:53.379Z,59.58
2023-04-15T13:06:58.733Z,59.39
2023-04-15T13:08:04.096Z,59.67
2023-04-15T13:09:09.503Z,59.62
2023-04-15T13:10:15.919Z,59.5
2023-04-15T13:11:21.240Z,59.34
2023-04-15T13:12:26.567Z,59.6
2023-04-15T13:13:31.906Z,59.51
2023-04-15T13:14:37.338Z,59.7
2023-04-15T13:15:42.681Z,59.62
2023-04-15T13:16:51.168Z,59.56
2023-04-15T13:17:56.547Z,59.41
2023-04-15T13:19:01.935Z,59.34
2023-04-15T13:20:07.289Z,59.78
2023-04-15T13:21:12.853Z,59.69
2023-04-15T13:22:18.208Z,59.36
2023-04-15T13:23:25.831Z,59.35
2023-04-15T13:24:31.209Z,59.56
2023-04-15T13:25:36.608Z,59.3
2023-04-15T13:26:44.563Z,59.48
2023-04-15T13:27:49.889Z,59.34
2023-04-15T13:28:55.234Z,59.33
2023-04-15T13:30:00.555Z,59.56
2023-04-15T13:31:05.962Z,59.37
2023-04-15T13:32:11.290Z,59.46
2023-04-15T13:33:16.624Z,59.35
2023-04-15T13:34:22.024Z,59.53
2023-04-15T13:35:27.325Z,59.33
2023-04-15T13:36:32.657Z,59.47
2023-04-15T13:37:37.989Z,59.52
2023-04-15T13:38:43.369Z,59.49
2023-04-15T13:39:48.723Z,59.56
2023-04-15T13:40:54.090Z,59.25
2023-04-15T13:41:59.532Z,59.58
2023-04-15T13:43:04.860Z,59.17
2023-04-15T13:44:10.532Z,59.59
2023-04-15T13:45:15.831Z,59.31
2023-04-15T13:46:21.542Z,59.5
2023-04-15T13:47:27.274Z,59.48
2023-04-15T13:48:32.676Z,59.64
2023-04-15T13:49:38.035Z,59.29
2023-04-15T13:50:44.422Z,59.26
2023-04-15T13:51:49.864Z,59.56
2023-04-15T13:52:55.193Z,59.51
2023-04-15T13:54:00.562Z,59.45
2023-04-15T13:55:26.409Z,59.62
2023-04-15T13:56:35.668Z,59.54
2023-04-15T13:57:41.048Z,59.62
2023-04-15T13:58:46.394Z,59.62
2023-04-15T13:59:51.769Z,59.47
2023-04-15T14:00:57.256Z,59.43
2023-04-15T14:02:02.973Z,59.35
2023-04-15T14:03:08.742Z,59.35
2023-04-15T14:04:14.853Z,59.34
2023-04-15T14:05:21.320Z,59.29
2023-04-15T14:06:26.678Z,59.35
2023-04-15T14:07:32.084Z,59.58